Terminal Aerodrome Forecast
Issued by NWS Omaha/Valley, NE

Home | Current Version | Previous Version | Text Only | Print | Product List | Glossary Off
Versions: 1 2 3 4 5 6 7 8 9 10 11 12 13 14

000
FTUS43 KOAX 211120
TAFOFK
TAF
KOFK 211120Z 2112/2212 31010KT P6SM BKN250
     FM211400 35018G25KT P6SM FEW090 SCT250
     FM212300 35010KT P6SM SKC
     FM220300 VRB03KT P6SM SKC=

USA.gov is the U.S. government's official web portal to all federal, state and local government web resources and services.